Sumner, Georgia
Current Conditions -  °F | °C
As of 4:10 PM on Friday 24 Oct 2014 (Local Time) from KTMA Reporting Station
Clear Clear  
Wind Chill: 74°   Ceiling: Unl
Heat Index: 74°   Visibility: 10mi
Dew Point: 40°   Wind: 0mph
Humidity: 29%   Direction: NA
Pressure: 29.97"   Gusts: NA
Location:  31.51°N, 83.74°W
Report Text: KTMA 242010Z AUTO 00000KT 10SM CLR 23/04 A2997 RMK AO2 T02330042
Loading
Personal Weather Stations






























Interactive Weather Map
Tropical Storm Tracking
New forecast layout! Learn more

10-Day Weather Forecast

Advertisements
Track Severe Weather on mobile